sensor_id;sensor_type;location;lat;lon;timestamp;P1;durP1;ratioP1;P2;durP2;ratioP2
10947;SDS011;5526;42.070;24.752;2023-05-07T00:01:42;5.80;;;5.30;;
10947;SDS011;5526;42.070;24.752;2023-05-07T00:04:09;6.80;;;6.00;;
10947;SDS011;5526;42.070;24.752;2023-05-07T00:06:36;6.20;;;5.70;;
10947;SDS011;5526;42.070;24.752;2023-05-07T00:09:04;6.88;;;5.50;;
10947;SDS011;5526;42.070;24.752;2023-05-07T00:11:32;6.22;;;5.75;;
10947;SDS011;5526;42.070;24.752;2023-05-07T00:14:00;6.40;;;5.80;;
10947;SDS011;5526;42.070;24.752;2023-05-07T00:16:27;6.15;;;5.63;;
10947;SDS011;5526;42.070;24.752;2023-05-07T00:18:54;5.85;;;5.50;;
10947;SDS011;5526;42.070;24.752;2023-05-07T00:21:21;6.13;;;5.63;;
10947;SDS011;5526;42.070;24.752;2023-05-07T00:23:48;7.00;;;6.50;;
10947;SDS011;5526;42.070;24.752;2023-05-07T00:26:16;6.75;;;6.05;;
10947;SDS011;5526;42.070;24.752;2023-05-07T00:28:43;7.05;;;6.45;;
10947;SDS011;5526;42.070;24.752;2023-05-07T00:31:10;7.45;;;6.47;;
10947;SDS011;5526;42.070;24.752;2023-05-07T00:33:37;7.10;;;6.43;;
10947;SDS011;5526;42.070;24.752;2023-05-07T00:36:04;7.15;;;6.45;;
10947;SDS011;5526;42.070;24.752;2023-05-07T00:38:32;7.90;;;7.22;;
10947;SDS011;5526;42.070;24.752;2023-05-07T00:40:59;7.50;;;6.90;;
10947;SDS011;5526;42.070;24.752;2023-05-07T00:43:28;8.57;;;6.85;;
10947;SDS011;5526;42.070;24.752;2023-05-07T00:45:56;7.38;;;6.70;;
10947;SDS011;5526;42.070;24.752;2023-05-07T00:48:23;7.78;;;7.07;;
10947;SDS011;5526;42.070;24.752;2023-05-07T00:50:51;7.13;;;6.57;;
10947;SDS011;5526;42.070;24.752;2023-05-07T00:53:18;7.57;;;6.97;;
10947;SDS011;5526;42.070;24.752;2023-05-07T00:55:46;7.78;;;7.07;;
10947;SDS011;5526;42.070;24.752;2023-05-07T00:58:13;8.15;;;7.45;;
10947;SDS011;5526;42.070;24.752;2023-05-07T01:00:41;7.82;;;7.13;;
10947;SDS011;5526;42.070;24.752;2023-05-07T01:03:08;7.70;;;7.18;;
10947;SDS011;5526;42.070;24.752;2023-05-07T01:05:36;8.60;;;7.80;;
10947;SDS011;5526;42.070;24.752;2023-05-07T01:08:03;7.50;;;6.80;;
10947;SDS011;5526;42.070;24.752;2023-05-07T01:10:31;8.05;;;7.28;;
10947;SDS011;5526;42.070;24.752;2023-05-07T01:12:58;6.50;;;6.00;;
10947;SDS011;5526;42.070;24.752;2023-05-07T01:15:26;8.32;;;6.78;;
10947;SDS011;5526;42.070;24.752;2023-05-07T01:17:55;6.90;;;6.10;;
10947;SDS011;5526;42.070;24.752;2023-05-07T01:20:23;6.72;;;5.97;;
10947;SDS011;5526;42.070;24.752;2023-05-07T01:22:51;6.57;;;5.95;;
10947;SDS011;5526;42.070;24.752;2023-05-07T01:25:19;6.43;;;5.80;;
10947;SDS011;5526;42.070;24.752;2023-05-07T01:27:46;6.05;;;5.60;;
10947;SDS011;5526;42.070;24.752;2023-05-07T01:30:13;8.63;;;5.88;;
10947;SDS011;5526;42.070;24.752;2023-05-07T01:32:42;6.38;;;5.80;;
10947;SDS011;5526;42.070;24.752;2023-05-07T01:35:14;6.65;;;5.63;;
10947;SDS011;5526;42.070;24.752;2023-05-07T01:37:44;6.43;;;5.75;;
10947;SDS011;5526;42.070;24.752;2023-05-07T01:40:14;6.72;;;6.05;;
10947;SDS011;5526;42.070;24.752;2023-05-07T01:42:41;6.47;;;5.88;;
10947;SDS011;5526;42.070;24.752;2023-05-07T01:45:10;6.65;;;6.15;;
10947;SDS011;5526;42.070;24.752;2023-05-07T01:47:37;7.00;;;5.88;;
10947;SDS011;5526;42.070;24.752;2023-05-07T01:50:06;5.95;;;5.55;;
10947;SDS011;5526;42.070;24.752;2023-05-07T01:52:35;6.30;;;5.80;;
10947;SDS011;5526;42.070;24.752;2023-05-07T01:55:04;6.70;;;6.10;;
10947;SDS011;5526;42.070;24.752;2023-05-07T01:57:34;6.40;;;5.78;;
10947;SDS011;5526;42.070;24.752;2023-05-07T02:00:01;7.20;;;6.63;;
10947;SDS011;5526;42.070;24.752;2023-05-07T02:02:31;6.60;;;6.00;;
10947;SDS011;5526;42.070;24.752;2023-05-07T02:04:59;7.93;;;7.32;;
10947;SDS011;5526;42.070;24.752;2023-05-07T02:07:26;8.20;;;7.50;;
10947;SDS011;5526;42.070;24.752;2023-05-07T02:09:53;8.65;;;7.97;;
10947;SDS011;5526;42.070;24.752;2023-05-07T02:12:21;9.50;;;8.70;;
10947;SDS011;5526;42.070;24.752;2023-05-07T02:14:49;9.20;;;8.30;;
10947;SDS011;5526;42.070;24.752;2023-05-07T02:17:16;9.88;;;8.90;;
10947;SDS011;5526;42.070;24.752;2023-05-07T02:19:43;9.77;;;8.85;;
10947;SDS011;5526;42.070;24.752;2023-05-07T02:22:10;9.88;;;9.02;;
10947;SDS011;5526;42.070;24.752;2023-05-07T02:24:37;9.68;;;8.88;;
10947;SDS011;5526;42.070;24.752;2023-05-07T02:27:05;10.20;;;9.40;;
10947;SDS011;5526;42.070;24.752;2023-05-07T02:29:32;10.70;;;9.23;;
10947;SDS011;5526;42.070;24.752;2023-05-07T02:32:00;9.75;;;8.95;;
10947;SDS011;5526;42.070;24.752;2023-05-07T02:34:27;10.13;;;9.23;;
10947;SDS011;5526;42.070;24.752;2023-05-07T02:36:54;9.63;;;8.70;;
10947;SDS011;5526;42.070;24.752;2023-05-07T02:39:21;10.10;;;9.18;;
10947;SDS011;5526;42.070;24.752;2023-05-07T02:41:49;9.98;;;9.15;;
10947;SDS011;5526;42.070;24.752;2023-05-07T02:44:16;9.95;;;9.05;;
10947;SDS011;5526;42.070;24.752;2023-05-07T02:46:43;10.07;;;9.18;;
10947;SDS011;5526;42.070;24.752;2023-05-07T02:49:11;10.20;;;9.10;;
10947;SDS011;5526;42.070;24.752;2023-05-07T02:51:38;10.32;;;9.32;;
10947;SDS011;5526;42.070;24.752;2023-05-07T02:54:05;10.88;;;9.88;;
10947;SDS011;5526;42.070;24.752;2023-05-07T02:56:32;10.13;;;9.23;;
10947;SDS011;5526;42.070;24.752;2023-05-07T02:58:59;10.60;;;9.60;;
10947;SDS011;5526;42.070;24.752;2023-05-07T03:01:26;11.93;;;10.50;;
10947;SDS011;5526;42.070;24.752;2023-05-07T03:03:53;11.27;;;10.27;;
10947;SDS011;5526;42.070;24.752;2023-05-07T03:06:22;11.10;;;10.07;;
10947;SDS011;5526;42.070;24.752;2023-05-07T03:08:49;9.98;;;9.18;;
10947;SDS011;5526;42.070;24.752;2023-05-07T03:11:16;10.60;;;9.75;;
10947;SDS011;5526;42.070;24.752;2023-05-07T03:13:43;11.20;;;10.10;;
10947;SDS011;5526;42.070;24.752;2023-05-07T03:16:10;10.43;;;9.50;;
10947;SDS011;5526;42.070;24.752;2023-05-07T03:37:53;9.80;;;8.95;;
10947;SDS011;5526;42.070;24.752;2023-05-07T03:40:20;9.90;;;9.00;;
10947;SDS011;5526;42.070;24.752;2023-05-07T03:42:48;9.45;;;8.75;;
10947;SDS011;5526;42.070;24.752;2023-05-07T03:45:15;9.95;;;9.05;;
10947;SDS011;5526;42.070;24.752;2023-05-07T03:47:42;10.13;;;9.32;;
10947;SDS011;5526;42.070;24.752;2023-05-07T03:50:09;9.77;;;8.98;;
10947;SDS011;5526;42.070;24.752;2023-05-07T03:52:36;9.32;;;8.55;;
10947;SDS011;5526;42.070;24.752;2023-05-07T03:55:05;9.07;;;8.25;;
10947;SDS011;5526;42.070;24.752;2023-05-07T03:57:33;8.85;;;8.05;;
10947;SDS011;5526;42.070;24.752;2023-05-07T04:00:00;9.30;;;8.50;;
10947;SDS011;5526;42.070;24.752;2023-05-07T04:02:29;8.85;;;8.05;;
10947;SDS011;5526;42.070;24.752;2023-05-07T04:04:56;8.18;;;7.47;;
10947;SDS011;5526;42.070;24.752;2023-05-07T04:07:24;8.18;;;7.60;;
10947;SDS011;5526;42.070;24.752;2023-05-07T04:09:51;8.75;;;7.85;;
10947;SDS011;5526;42.070;24.752;2023-05-07T04:12:19;7.90;;;7.20;;
10947;SDS011;5526;42.070;24.752;2023-05-07T04:14:46;7.43;;;6.72;;
10947;SDS011;5526;42.070;24.752;2023-05-07T04:17:14;6.97;;;6.40;;
10947;SDS011;5526;42.070;24.752;2023-05-07T04:19:41;7.15;;;6.65;;
10947;SDS011;5526;42.070;24.752;2023-05-07T04:22:10;7.43;;;6.72;;
10947;SDS011;5526;42.070;24.752;2023-05-07T04:24:37;7.78;;;7.07;;
10947;SDS011;5526;42.070;24.752;2023-05-07T04:27:05;7.07;;;6.47;;
10947;SDS011;5526;42.070;24.752;2023-05-07T04:29:34;7.00;;;6.40;;
10947;SDS011;5526;42.070;24.752;2023-05-07T04:32:01;7.47;;;6.88;;
10947;SDS011;5526;42.070;24.752;2023-05-07T04:34:28;7.45;;;6.85;;
10947;SDS011;5526;42.070;24.752;2023-05-07T04:36:57;7.32;;;6.63;;
10947;SDS011;5526;42.070;24.752;2023-05-07T04:39:25;7.53;;;6.93;;
10947;SDS011;5526;42.070;24.752;2023-05-07T04:41:53;7.20;;;6.70;;
10947;SDS011;5526;42.070;24.752;2023-05-07T04:44:20;7.07;;;6.57;;
10947;SDS011;5526;42.070;24.752;2023-05-07T04:46:49;7.43;;;6.80;;
10947;SDS011;5526;42.070;24.752;2023-05-07T04:49:16;7.28;;;6.68;;
10947;SDS011;5526;42.070;24.752;2023-05-07T04:51:43;7.45;;;6.75;;
10947;SDS011;5526;42.070;24.752;2023-05-07T04:54:10;7.60;;;7.00;;
10947;SDS011;5526;42.070;24.752;2023-05-07T04:56:38;7.75;;;7.10;;
10947;SDS011;5526;42.070;24.752;2023-05-07T04:59:05;7.82;;;7.00;;
10947;SDS011;5526;42.070;24.752;2023-05-07T05:01:32;8.52;;;7.82;;
10947;SDS011;5526;42.070;24.752;2023-05-07T05:04:00;8.48;;;7.78;;
10947;SDS011;5526;42.070;24.752;2023-05-07T05:06:27;10.35;;;7.53;;
10947;SDS011;5526;42.070;24.752;2023-05-07T05:08:55;10.63;;;7.90;;
10947;SDS011;5526;42.070;24.752;2023-05-07T05:11:22;8.68;;;7.93;;
10947;SDS011;5526;42.070;24.752;2023-05-07T05:13:49;8.60;;;7.80;;
10947;SDS011;5526;42.070;24.752;2023-05-07T05:16:16;8.82;;;7.93;;
10947;SDS011;5526;42.070;24.752;2023-05-07T05:18:43;7.85;;;7.25;;
10947;SDS011;5526;42.070;24.752;2023-05-07T05:21:12;8.25;;;7.43;;
10947;SDS011;5526;42.070;24.752;2023-05-07T05:23:39;8.20;;;7.47;;
10947;SDS011;5526;42.070;24.752;2023-05-07T05:26:06;8.63;;;7.93;;
10947;SDS011;5526;42.070;24.752;2023-05-07T05:28:33;8.18;;;7.38;;
10947;SDS011;5526;42.070;24.752;2023-05-07T05:31:00;8.63;;;7.93;;
10947;SDS011;5526;42.070;24.752;2023-05-07T05:33:27;8.43;;;7.63;;
10947;SDS011;5526;42.070;24.752;2023-05-07T05:35:54;7.90;;;7.18;;
10947;SDS011;5526;42.070;24.752;2023-05-07T05:38:22;7.88;;;7.15;;
10947;SDS011;5526;42.070;24.752;2023-05-07T05:40:49;8.75;;;7.22;;
10947;SDS011;5526;42.070;24.752;2023-05-07T05:43:17;8.18;;;7.45;;
10947;SDS011;5526;42.070;24.752;2023-05-07T05:45:44;8.45;;;7.72;;
10947;SDS011;5526;42.070;24.752;2023-05-07T05:48:11;7.70;;;7.10;;
10947;SDS011;5526;42.070;24.752;2023-05-07T05:50:38;7.93;;;7.20;;
10947;SDS011;5526;42.070;24.752;2023-05-07T05:53:05;7.72;;;6.95;;
10947;SDS011;5526;42.070;24.752;2023-05-07T05:55:33;8.82;;;6.80;;
10947;SDS011;5526;42.070;24.752;2023-05-07T05:58:01;7.32;;;6.78;;
10947;SDS011;5526;42.070;24.752;2023-05-07T06:00:28;6.93;;;6.32;;
10947;SDS011;5526;42.070;24.752;2023-05-07T06:02:56;7.47;;;6.80;;
10947;SDS011;5526;42.070;24.752;2023-05-07T06:05:23;6.93;;;6.40;;
10947;SDS011;5526;42.070;24.752;2023-05-07T06:07:50;7.13;;;6.53;;
10947;SDS011;5526;42.070;24.752;2023-05-07T06:10:17;7.68;;;7.07;;
10947;SDS011;5526;42.070;24.752;2023-05-07T06:12:46;7.50;;;6.82;;
10947;SDS011;5526;42.070;24.752;2023-05-07T06:15:13;6.93;;;6.25;;
10947;SDS011;5526;42.070;24.752;2023-05-07T06:17:40;7.78;;;6.70;;
10947;SDS011;5526;42.070;24.752;2023-05-07T06:20:07;6.88;;;6.28;;
10947;SDS011;5526;42.070;24.752;2023-05-07T06:22:35;6.63;;;5.80;;
10947;SDS011;5526;42.070;24.752;2023-05-07T06:25:02;6.75;;;6.20;;
10947;SDS011;5526;42.070;24.752;2023-05-07T06:27:29;6.63;;;6.03;;
10947;SDS011;5526;42.070;24.752;2023-05-07T06:29:58;6.90;;;6.40;;
10947;SDS011;5526;42.070;24.752;2023-05-07T06:32:25;7.38;;;6.63;;
10947;SDS011;5526;42.070;24.752;2023-05-07T06:34:52;6.82;;;6.32;;
10947;SDS011;5526;42.070;24.752;2023-05-07T06:37:19;6.93;;;6.28;;
10947;SDS011;5526;42.070;24.752;2023-05-07T06:39:46;6.50;;;5.90;;
10947;SDS011;5526;42.070;24.752;2023-05-07T06:42:13;6.65;;;6.10;;
10947;SDS011;5526;42.070;24.752;2023-05-07T06:44:41;5.60;;;5.10;;
10947;SDS011;5526;42.070;24.752;2023-05-07T06:47:09;6.43;;;5.82;;
10947;SDS011;5526;42.070;24.752;2023-05-07T06:49:36;5.70;;;5.20;;
10947;SDS011;5526;42.070;24.752;2023-05-07T06:52:03;6.55;;;5.95;;
10947;SDS011;5526;42.070;24.752;2023-05-07T06:54:30;6.30;;;5.70;;
10947;SDS011;5526;42.070;24.752;2023-05-07T06:56:57;6.13;;;5.55;;
10947;SDS011;5526;42.070;24.752;2023-05-07T06:59:25;8.55;;;6.50;;
10947;SDS011;5526;42.070;24.752;2023-05-07T07:01:52;6.70;;;6.10;;
10947;SDS011;5526;42.070;24.752;2023-05-07T07:04:20;7.15;;;6.07;;
10947;SDS011;5526;42.070;24.752;2023-05-07T07:06:49;6.85;;;6.32;;
10947;SDS011;5526;42.070;24.752;2023-05-07T07:09:18;6.35;;;5.78;;
10947;SDS011;5526;42.070;24.752;2023-05-07T07:11:45;6.88;;;6.28;;
10947;SDS011;5526;42.070;24.752;2023-05-07T07:14:12;6.10;;;5.50;;
10947;SDS011;5526;42.070;24.752;2023-05-07T07:16:39;6.32;;;5.70;;
10947;SDS011;5526;42.070;24.752;2023-05-07T07:19:07;6.07;;;5.55;;
10947;SDS011;5526;42.070;24.752;2023-05-07T07:21:35;5.75;;;5.35;;
10947;SDS011;5526;42.070;24.752;2023-05-07T07:24:03;6.70;;;6.10;;
10947;SDS011;5526;42.070;24.752;2023-05-07T07:26:30;6.00;;;5.38;;
10947;SDS011;5526;42.070;24.752;2023-05-07T07:28:57;6.70;;;6.20;;
10947;SDS011;5526;42.070;24.752;2023-05-07T07:31:25;6.30;;;5.70;;
10947;SDS011;5526;42.070;24.752;2023-05-07T07:33:52;5.95;;;5.55;;
10947;SDS011;5526;42.070;24.752;2023-05-07T07:36:19;6.10;;;5.60;;
10947;SDS011;5526;42.070;24.752;2023-05-07T07:38:47;6.30;;;5.80;;
10947;SDS011;5526;42.070;24.752;2023-05-07T07:41:14;5.90;;;5.40;;
10947;SDS011;5526;42.070;24.752;2023-05-07T07:43:41;6.80;;;6.18;;
10947;SDS011;5526;42.070;24.752;2023-05-07T07:46:08;6.90;;;6.30;;
10947;SDS011;5526;42.070;24.752;2023-05-07T07:48:35;6.80;;;6.30;;
10947;SDS011;5526;42.070;24.752;2023-05-07T07:51:02;7.05;;;6.50;;
10947;SDS011;5526;42.070;24.752;2023-05-07T07:53:30;7.63;;;6.93;;
10947;SDS011;5526;42.070;24.752;2023-05-07T07:55:58;6.18;;;5.57;;
10947;SDS011;5526;42.070;24.752;2023-05-07T07:58:25;6.88;;;6.13;;
10947;SDS011;5526;42.070;24.752;2023-05-07T08:00:53;6.75;;;6.18;;
10947;SDS011;5526;42.070;24.752;2023-05-07T08:03:21;6.10;;;5.70;;
10947;SDS011;5526;42.070;24.752;2023-05-07T08:05:48;6.25;;;5.75;;
10947;SDS011;5526;42.070;24.752;2023-05-07T08:08:16;6.60;;;5.95;;
10947;SDS011;5526;42.070;24.752;2023-05-07T08:10:43;6.40;;;5.88;;
10947;SDS011;5526;42.070;24.752;2023-05-07T08:13:11;5.88;;;5.28;;
10947;SDS011;5526;42.070;24.752;2023-05-07T08:15:39;5.07;;;4.68;;
10947;SDS011;5526;42.070;24.752;2023-05-07T08:18:06;5.38;;;4.93;;
10947;SDS011;5526;42.070;24.752;2023-05-07T08:20:33;6.65;;;5.93;;
10947;SDS011;5526;42.070;24.752;2023-05-07T08:23:04;6.38;;;5.78;;
10947;SDS011;5526;42.070;24.752;2023-05-07T08:25:32;7.25;;;5.80;;
10947;SDS011;5526;42.070;24.752;2023-05-07T08:27:59;8.45;;;5.60;;
10947;SDS011;5526;42.070;24.752;2023-05-07T08:30:29;7.10;;;6.40;;
10947;SDS011;5526;42.070;24.752;2023-05-07T08:32:57;12.52;;;9.57;;
10947;SDS011;5526;42.070;24.752;2023-05-07T08:35:24;12.18;;;9.18;;
10947;SDS011;5526;42.070;24.752;2023-05-07T08:37:52;9.57;;;8.30;;
10947;SDS011;5526;42.070;24.752;2023-05-07T08:40:19;6.72;;;5.85;;
10947;SDS011;5526;42.070;24.752;2023-05-07T08:42:48;4.40;;;4.10;;
10947;SDS011;5526;42.070;24.752;2023-05-07T08:45:16;5.93;;;4.80;;
10947;SDS011;5526;42.070;24.752;2023-05-07T08:47:48;8.35;;;5.53;;
10947;SDS011;5526;42.070;24.752;2023-05-07T08:50:18;5.88;;;5.22;;
10947;SDS011;5526;42.070;24.752;2023-05-07T08:52:47;4.35;;;3.92;;
10947;SDS011;5526;42.070;24.752;2023-05-07T08:55:14;5.05;;;4.40;;
10947;SDS011;5526;42.070;24.752;2023-05-07T08:57:42;6.95;;;4.90;;
10947;SDS011;5526;42.070;24.752;2023-05-07T09:00:09;4.03;;;3.72;;
10947;SDS011;5526;42.070;24.752;2023-05-07T09:02:37;4.90;;;4.50;;
10947;SDS011;5526;42.070;24.752;2023-05-07T09:05:06;4.65;;;4.25;;
10947;SDS011;5526;42.070;24.752;2023-05-07T09:07:34;4.22;;;3.90;;
10947;SDS011;5526;42.070;24.752;2023-05-07T09:10:02;4.75;;;3.97;;
10947;SDS011;5526;42.070;24.752;2023-05-07T09:12:30;4.30;;;4.00;;
10947;SDS011;5526;42.070;24.752;2023-05-07T09:14:57;3.70;;;3.40;;
10947;SDS011;5526;42.070;24.752;2023-05-07T09:17:25;3.38;;;3.17;;
10947;SDS011;5526;42.070;24.752;2023-05-07T09:19:53;5.85;;;3.67;;
10947;SDS011;5526;42.070;24.752;2023-05-07T09:22:21;3.70;;;3.40;;
10947;SDS011;5526;42.070;24.752;2023-05-07T09:24:48;4.10;;;3.33;;
10947;SDS011;5526;42.070;24.752;2023-05-07T09:27:17;4.03;;;3.28;;
10947;SDS011;5526;42.070;24.752;2023-05-07T09:29:44;4.38;;;3.30;;
10947;SDS011;5526;42.070;24.752;2023-05-07T09:32:11;3.50;;;3.17;;
10947;SDS011;5526;42.070;24.752;2023-05-07T09:34:38;4.88;;;3.03;;
10947;SDS011;5526;42.070;24.752;2023-05-07T09:37:06;4.78;;;3.03;;
10947;SDS011;5526;42.070;24.752;2023-05-07T09:39:40;3.15;;;2.75;;
10947;SDS011;5526;42.070;24.752;2023-05-07T09:42:09;2.70;;;2.50;;
10947;SDS011;5526;42.070;24.752;2023-05-07T09:44:37;4.22;;;2.60;;
10947;SDS011;5526;42.070;24.752;2023-05-07T09:47:05;3.28;;;2.97;;
10947;SDS011;5526;42.070;24.752;2023-05-07T09:49:33;4.25;;;2.90;;
10947;SDS011;5526;42.070;24.752;2023-05-07T09:52:02;2.90;;;2.65;;
10947;SDS011;5526;42.070;24.752;2023-05-07T09:54:36;2.95;;;2.38;;
10947;SDS011;5526;42.070;24.752;2023-05-07T09:57:05;3.10;;;2.53;;
10947;SDS011;5526;42.070;24.752;2023-05-07T09:59:33;3.53;;;2.60;;
10947;SDS011;5526;42.070;24.752;2023-05-07T10:02:03;3.20;;;2.92;;
10947;SDS011;5526;42.070;24.752;2023-05-07T10:04:31;4.28;;;2.60;;
10947;SDS011;5526;42.070;24.752;2023-05-07T10:06:58;3.38;;;2.55;;
10947;SDS011;5526;42.070;24.752;2023-05-07T10:09:26;2.58;;;2.38;;
10947;SDS011;5526;42.070;24.752;2023-05-07T10:11:53;2.90;;;2.70;;
10947;SDS011;5526;42.070;24.752;2023-05-07T10:14:22;2.58;;;2.47;;
10947;SDS011;5526;42.070;24.752;2023-05-07T10:16:50;3.08;;;2.30;;
10947;SDS011;5526;42.070;24.752;2023-05-07T10:19:20;2.80;;;2.60;;
10947;SDS011;5526;42.070;24.752;2023-05-07T10:21:50;3.00;;;2.70;;
10947;SDS011;5526;42.070;24.752;2023-05-07T10:24:25;2.95;;;2.75;;
10947;SDS011;5526;42.070;24.752;2023-05-07T10:26:53;2.58;;;2.17;;
10947;SDS011;5526;42.070;24.752;2023-05-07T10:29:28;4.80;;;2.70;;
10947;SDS011;5526;42.070;24.752;2023-05-07T10:32:08;4.95;;;2.95;;
10947;SDS011;5526;42.070;24.752;2023-05-07T10:34:56;4.22;;;3.17;;
10947;SDS011;5526;42.070;24.752;2023-05-07T10:37:27;2.70;;;2.45;;
10947;SDS011;5526;42.070;24.752;2023-05-07T10:39:55;3.10;;;2.80;;
10947;SDS011;5526;42.070;24.752;2023-05-07T10:42:22;3.15;;;2.85;;
10947;SDS011;5526;42.070;24.752;2023-05-07T10:44:51;3.00;;;2.60;;
10947;SDS011;5526;42.070;24.752;2023-05-07T10:47:18;2.60;;;2.38;;
10947;SDS011;5526;42.070;24.752;2023-05-07T10:52:56;3.78;;;2.67;;
10947;SDS011;5526;42.070;24.752;2023-05-07T11:02:07;3.33;;;2.80;;
10947;SDS011;5526;42.070;24.752;2023-05-07T11:04:36;3.40;;;3.05;;
10947;SDS011;5526;42.070;24.752;2023-05-07T11:07:25;5.05;;;3.17;;
10947;SDS011;5526;42.070;24.752;2023-05-07T11:09:59;3.67;;;2.70;;
10947;SDS011;5526;42.070;24.752;2023-05-07T11:15:38;2.60;;;2.40;;
10947;SDS011;5526;42.070;24.752;2023-05-07T11:18:10;3.00;;;2.40;;
10947;SDS011;5526;42.070;24.752;2023-05-07T11:20:52;2.88;;;2.42;;
10947;SDS011;5526;42.070;24.752;2023-05-07T11:26:30;2.75;;;2.50;;
10947;SDS011;5526;42.070;24.752;2023-05-07T11:28:57;2.50;;;2.30;;
10947;SDS011;5526;42.070;24.752;2023-05-07T11:31:26;2.83;;;2.63;;
10947;SDS011;5526;42.070;24.752;2023-05-07T11:33:56;2.85;;;2.75;;
10947;SDS011;5526;42.070;24.752;2023-05-07T11:36:24;4.18;;;3.00;;
10947;SDS011;5526;42.070;24.752;2023-05-07T11:38:52;4.38;;;2.50;;
10947;SDS011;5526;42.070;24.752;2023-05-07T11:41:19;3.00;;;2.30;;
10947;SDS011;5526;42.070;24.752;2023-05-07T11:43:53;3.60;;;2.55;;
10947;SDS011;5526;42.070;24.752;2023-05-07T11:46:22;3.03;;;2.50;;
10947;SDS011;5526;42.070;24.752;2023-05-07T11:48:49;3.35;;;2.67;;
10947;SDS011;5526;42.070;24.752;2023-05-07T11:51:20;4.60;;;2.97;;
10947;SDS011;5526;42.070;24.752;2023-05-07T11:53:49;3.10;;;2.80;;
10947;SDS011;5526;42.070;24.752;2023-05-07T11:56:18;2.88;;;2.67;;
10947;SDS011;5526;42.070;24.752;2023-05-07T11:58:45;2.70;;;2.50;;
10947;SDS011;5526;42.070;24.752;2023-05-07T12:01:13;2.33;;;2.13;;
10947;SDS011;5526;42.070;24.752;2023-05-07T12:03:42;3.30;;;2.97;;
10947;SDS011;5526;42.070;24.752;2023-05-07T12:06:11;3.78;;;2.38;;
10947;SDS011;5526;42.070;24.752;2023-05-07T12:08:40;2.70;;;2.47;;
10947;SDS011;5526;42.070;24.752;2023-05-07T12:11:08;3.35;;;3.05;;
10947;SDS011;5526;42.070;24.752;2023-05-07T12:13:37;3.20;;;2.45;;
10947;SDS011;5526;42.070;24.752;2023-05-07T12:16:05;3.78;;;2.35;;
10947;SDS011;5526;42.070;24.752;2023-05-07T12:18:34;2.30;;;2.20;;
10947;SDS011;5526;42.070;24.752;2023-05-07T12:21:03;2.83;;;2.58;;
10947;SDS011;5526;42.070;24.752;2023-05-07T12:23:31;3.33;;;2.60;;
10947;SDS011;5526;42.070;24.752;2023-05-07T12:26:00;2.90;;;2.70;;
10947;SDS011;5526;42.070;24.752;2023-05-07T12:28:28;3.15;;;3.00;;
10947;SDS011;5526;42.070;24.752;2023-05-07T12:30:55;2.92;;;2.72;;
10947;SDS011;5526;42.070;24.752;2023-05-07T12:33:24;3.30;;;2.88;;
10947;SDS011;5526;42.070;24.752;2023-05-07T12:35:54;2.90;;;2.70;;
10947;SDS011;5526;42.070;24.752;2023-05-07T12:38:22;2.65;;;2.50;;
10947;SDS011;5526;42.070;24.752;2023-05-07T12:40:49;2.80;;;2.60;;
10947;SDS011;5526;42.070;24.752;2023-05-07T12:43:21;3.38;;;3.10;;
10947;SDS011;5526;42.070;24.752;2023-05-07T12:45:52;2.85;;;2.65;;
10947;SDS011;5526;42.070;24.752;2023-05-07T12:48:22;3.20;;;3.00;;
10947;SDS011;5526;42.070;24.752;2023-05-07T12:50:52;2.63;;;2.53;;
10947;SDS011;5526;42.070;24.752;2023-05-07T12:53:20;3.30;;;3.00;;
10947;SDS011;5526;42.070;24.752;2023-05-07T12:55:49;3.75;;;2.75;;
10947;SDS011;5526;42.070;24.752;2023-05-07T12:58:18;3.13;;;2.70;;
10947;SDS011;5526;42.070;24.752;2023-05-07T13:00:49;2.90;;;2.53;;
10947;SDS011;5526;42.070;24.752;2023-05-07T13:03:26;2.58;;;2.38;;
10947;SDS011;5526;42.070;24.752;2023-05-07T13:05:55;3.35;;;2.45;;
10947;SDS011;5526;42.070;24.752;2023-05-07T13:08:25;3.53;;;3.22;;
10947;SDS011;5526;42.070;24.752;2023-05-07T13:10:56;4.22;;;2.58;;
10947;SDS011;5526;42.070;24.752;2023-05-07T13:13:25;3.78;;;3.35;;
10947;SDS011;5526;42.070;24.752;2023-05-07T13:15:53;3.90;;;3.00;;
10947;SDS011;5526;42.070;24.752;2023-05-07T13:18:20;2.90;;;2.70;;
10947;SDS011;5526;42.070;24.752;2023-05-07T13:20:47;2.92;;;2.70;;
10947;SDS011;5526;42.070;24.752;2023-05-07T13:23:14;3.63;;;2.83;;
10947;SDS011;5526;42.070;24.752;2023-05-07T13:25:41;3.38;;;3.08;;
10947;SDS011;5526;42.070;24.752;2023-05-07T13:28:09;2.95;;;2.67;;
10947;SDS011;5526;42.070;24.752;2023-05-07T13:30:36;3.33;;;2.92;;
10947;SDS011;5526;42.070;24.752;2023-05-07T13:33:04;3.20;;;2.58;;
10947;SDS011;5526;42.070;24.752;2023-05-07T13:35:31;2.90;;;2.70;;
10947;SDS011;5526;42.070;24.752;2023-05-07T13:37:58;3.70;;;2.90;;
10947;SDS011;5526;42.070;24.752;2023-05-07T13:40:25;3.08;;;2.88;;
10947;SDS011;5526;42.070;24.752;2023-05-07T13:42:53;2.80;;;2.60;;
10947;SDS011;5526;42.070;24.752;2023-05-07T13:45:20;2.22;;;2.05;;
10947;SDS011;5526;42.070;24.752;2023-05-07T13:47:50;5.38;;;2.85;;
10947;SDS011;5526;42.070;24.752;2023-05-07T13:50:19;3.55;;;3.08;;
10947;SDS011;5526;42.070;24.752;2023-05-07T13:52:46;3.58;;;2.88;;
10947;SDS011;5526;42.070;24.752;2023-05-07T13:55:16;3.38;;;2.30;;
10947;SDS011;5526;42.070;24.752;2023-05-07T13:57:44;2.60;;;2.38;;
10947;SDS011;5526;42.070;24.752;2023-05-07T14:00:11;2.55;;;2.40;;
10947;SDS011;5526;42.070;24.752;2023-05-07T14:02:39;3.40;;;2.70;;
10947;SDS011;5526;42.070;24.752;2023-05-07T14:05:06;2.80;;;2.38;;
10947;SDS011;5526;42.070;24.752;2023-05-07T14:07:36;3.50;;;3.22;;
10947;SDS011;5526;42.070;24.752;2023-05-07T14:10:04;2.67;;;2.47;;
10947;SDS011;5526;42.070;24.752;2023-05-07T14:12:32;2.15;;;1.98;;
10947;SDS011;5526;42.070;24.752;2023-05-07T14:14:59;2.88;;;2.25;;
10947;SDS011;5526;42.070;24.752;2023-05-07T14:17:27;2.65;;;2.22;;
10947;SDS011;5526;42.070;24.752;2023-05-07T14:19:54;2.42;;;2.30;;
10947;SDS011;5526;42.070;24.752;2023-05-07T14:22:21;2.58;;;2.38;;
10947;SDS011;5526;42.070;24.752;2023-05-07T14:24:50;3.55;;;2.17;;
10947;SDS011;5526;42.070;24.752;2023-05-07T14:27:17;2.60;;;2.42;;
10947;SDS011;5526;42.070;24.752;2023-05-07T14:29:44;2.35;;;2.15;;
10947;SDS011;5526;42.070;24.752;2023-05-07T14:32:16;2.55;;;2.30;;
10947;SDS011;5526;42.070;24.752;2023-05-07T14:34:43;2.40;;;2.20;;
10947;SDS011;5526;42.070;24.752;2023-05-07T14:37:10;2.15;;;2.05;;
10947;SDS011;5526;42.070;24.752;2023-05-07T14:39:38;2.40;;;2.30;;
10947;SDS011;5526;42.070;24.752;2023-05-07T14:42:07;2.70;;;2.20;;
10947;SDS011;5526;42.070;24.752;2023-05-07T14:44:34;2.50;;;2.30;;
10947;SDS011;5526;42.070;24.752;2023-05-07T14:47:01;3.97;;;2.40;;
10947;SDS011;5526;42.070;24.752;2023-05-07T14:49:28;2.03;;;1.92;;
10947;SDS011;5526;42.070;24.752;2023-05-07T14:51:56;2.50;;;2.30;;
10947;SDS011;5526;42.070;24.752;2023-05-07T14:54:25;3.10;;;2.30;;
10947;SDS011;5526;42.070;24.752;2023-05-07T14:56:52;1.90;;;1.80;;
10947;SDS011;5526;42.070;24.752;2023-05-07T14:59:21;2.30;;;1.95;;
10947;SDS011;5526;42.070;24.752;2023-05-07T15:01:50;2.20;;;2.10;;
10947;SDS011;5526;42.070;24.752;2023-05-07T15:04:17;2.00;;;1.90;;
10947;SDS011;5526;42.070;24.752;2023-05-07T15:06:44;2.40;;;2.17;;
10947;SDS011;5526;42.070;24.752;2023-05-07T15:09:12;2.10;;;2.00;;
10947;SDS011;5526;42.070;24.752;2023-05-07T15:11:40;2.20;;;1.92;;
10947;SDS011;5526;42.070;24.752;2023-05-07T15:14:07;2.45;;;1.90;;
10947;SDS011;5526;42.070;24.752;2023-05-07T15:16:35;2.00;;;1.90;;
10947;SDS011;5526;42.070;24.752;2023-05-07T15:19:02;2.80;;;1.83;;
10947;SDS011;5526;42.070;24.752;2023-05-07T15:21:30;2.95;;;1.90;;
10947;SDS011;5526;42.070;24.752;2023-05-07T15:23:59;2.22;;;2.03;;
10947;SDS011;5526;42.070;24.752;2023-05-07T15:26:26;2.88;;;2.20;;
10947;SDS011;5526;42.070;24.752;2023-05-07T15:28:54;2.97;;;2.05;;